createdAt,value
2023-03-13T00:00:56.547Z,13.38
2023-03-13T00:03:24.485Z,13.24
2023-03-13T00:05:56.294Z,13.03
2023-03-13T00:08:25.224Z,13.14
2023-03-13T00:10:52.855Z,13.21
2023-03-13T00:13:20.673Z,13.23
2023-03-13T00:15:48.327Z,12.90
2023-03-13T00:18:16.851Z,13.01
2023-03-13T00:20:47.784Z,13.23
2023-03-13T00:23:15.655Z,13.19
2023-03-13T00:25:43.151Z,12.87
2023-03-13T00:28:11.076Z,12.79
2023-03-13T00:30:38.710Z,12.96
2023-03-13T00:33:06.877Z,13.23
2023-03-13T00:35:34.495Z,13.25
2023-03-13T00:38:02.451Z,13.11
2023-03-13T00:40:30.525Z,12.77
2023-03-13T00:42:58.471Z,12.89
2023-03-13T00:45:27.140Z,12.98
2023-03-13T00:47:54.911Z,12.73
2023-03-13T00:50:22.469Z,12.85
2023-03-13T00:52:50.271Z,13.13
2023-03-13T00:55:17.788Z,13.00
2023-03-13T00:57:45.758Z,13.08
2023-03-13T01:00:13.508Z,12.98
2023-03-13T01:02:42.353Z,13.04
2023-03-13T01:05:10.784Z,12.80
2023-03-13T01:07:38.696Z,13.01
2023-03-13T01:10:06.775Z,13.23
2023-03-13T01:12:34.998Z,13.03
2023-03-13T01:15:05.125Z,12.97
2023-03-13T01:17:33.093Z,13.02
2023-03-13T01:20:00.769Z,13.03
2023-03-13T01:22:28.698Z,13.31
2023-03-13T01:24:56.348Z,12.98
2023-03-13T01:27:24.348Z,13.30
2023-03-13T01:29:52.221Z,13.20
2023-03-13T01:32:20.453Z,13.17
2023-03-13T01:34:48.220Z,13.25
2023-03-13T01:37:16.429Z,13.62
2023-03-13T01:39:44.062Z,13.51
2023-03-13T01:42:12.029Z,13.39
2023-03-13T01:44:53.560Z,13.30
2023-03-13T01:47:22.738Z,13.53
2023-03-13T01:50:19.719Z,13.59
2023-03-13T01:52:56.920Z,13.54
2023-03-13T01:55:29.401Z,13.69
2023-03-13T01:57:57.823Z,13.54
2023-03-13T02:00:31.205Z,13.66
2023-03-13T02:03:01.681Z,13.43
2023-03-13T02:05:31.544Z,13.32
2023-03-13T02:08:06.053Z,13.45
2023-03-13T02:10:38.331Z,13.27
2023-03-13T02:13:06.312Z,13.50
2023-03-13T02:15:34.619Z,13.53
2023-03-13T02:18:02.906Z,13.51
2023-03-13T02:20:30.801Z,13.53
2023-03-13T02:22:59.048Z,13.61
2023-03-13T02:25:47.168Z,13.56
2023-03-13T02:28:23.570Z,13.41
2023-03-13T02:30:54.089Z,13.28
2023-03-13T02:33:26.585Z,13.20
2023-03-13T02:35:54.509Z,13.05
2023-03-13T02:38:25.502Z,13.15
2023-03-13T02:40:54.593Z,13.19
2023-03-13T02:43:26.537Z,13.22
2023-03-13T02:46:05.614Z,13.13
2023-03-13T02:48:43.298Z,13.25
2023-03-13T02:51:31.178Z,13.12
2023-03-13T02:54:06.596Z,13.09
2023-03-13T02:56:36.121Z,13.03
2023-03-13T02:59:05.637Z,13.21
2023-03-13T03:01:33.398Z,13.20
2023-03-13T03:04:01.456Z,13.06
2023-03-13T03:06:29.152Z,12.82
2023-03-13T03:08:57.395Z,12.87
2023-03-13T03:11:27.688Z,12.77
2023-03-13T03:14:02.016Z,12.78
2023-03-13T03:16:33.368Z,12.66
2023-03-13T03:19:01.449Z,12.42
2023-03-13T03:21:29.075Z,12.31
2023-03-13T03:23:57.105Z,12.66
2023-03-13T03:26:26.353Z,12.33
2023-03-13T03:28:54.375Z,12.25
2023-03-13T03:31:22.278Z,12.29
2023-03-13T03:33:50.406Z,12.32
2023-03-13T03:36:20.738Z,12.30
2023-03-13T03:38:49.942Z,12.54
2023-03-13T03:41:20.067Z,12.64
2023-03-13T03:43:49.431Z,12.64
2023-03-13T03:46:20.793Z,12.64
2023-03-13T03:48:48.830Z,12.33
2023-03-13T03:51:16.609Z,12.26
2023-03-13T03:53:47.892Z,12.47
2023-03-13T03:56:15.725Z,12.23
2023-03-13T03:58:49.324Z,12.32
2023-03-13T04:01:22.646Z,12.28
2023-03-13T04:03:50.800Z,12.03
2023-03-13T04:06:19.198Z,12.40
2023-03-13T04:08:48.977Z,12.49
2023-03-13T04:11:20.361Z,12.34
2023-03-13T04:13:51.927Z,12.27
2023-03-13T04:16:19.961Z,12.59
2023-03-13T04:18:49.588Z,12.50
2023-03-13T04:21:18.822Z,12.58
2023-03-13T04:23:52.017Z,12.66
2023-03-13T04:26:20.808Z,12.65
2023-03-13T04:28:51.449Z,12.53
2023-03-13T04:31:27.038Z,12.73
2023-03-13T04:34:18.311Z,12.70
2023-03-13T04:37:11.087Z,12.72
2023-03-13T04:39:41.980Z,12.63
2023-03-13T04:42:38.767Z,12.71
2023-03-13T04:45:26.093Z,12.64
2023-03-13T04:48:08.305Z,12.80
2023-03-13T04:50:48.993Z,12.67
2023-03-13T04:53:31.095Z,12.87
2023-03-13T04:56:41.547Z,12.75
2023-03-13T04:59:28.802Z,12.75
2023-03-13T05:02:06.593Z,12.81
2023-03-13T05:04:52.043Z,12.77
2023-03-13T05:07:58.969Z,12.97
2023-03-13T05:10:56.184Z,13.12
2023-03-13T05:13:47.503Z,13.17
2023-03-13T05:16:26.189Z,13.34
2023-03-13T05:19:15.393Z,13.16
2023-03-13T05:22:00.566Z,13.22
2023-03-13T05:24:46.699Z,13.17
2023-03-13T05:27:29.966Z,12.99
2023-03-13T05:30:19.605Z,13.00
2023-03-13T05:33:07.535Z,12.82
2023-03-13T05:36:01.628Z,12.94
2023-03-13T05:38:34.989Z,13.17
2023-03-13T05:41:13.217Z,12.94
2023-03-13T05:44:04.062Z,12.90
2023-03-13T05:46:55.402Z,13.05
2023-03-13T05:49:41.391Z,13.09
2023-03-13T05:52:18.923Z,12.96
2023-03-13T05:54:59.932Z,12.69
2023-03-13T05:57:47.082Z,12.15
2023-03-13T06:00:31.790Z,11.93
2023-03-13T06:03:19.852Z,11.94
2023-03-13T06:05:50.022Z,12.22
2023-03-13T06:08:33.297Z,12.23
2023-03-13T06:11:02.196Z,12.05
2023-03-13T06:13:30.606Z,11.99
2023-03-13T06:16:03.232Z,12.25
2023-03-13T06:18:48.726Z,12.57
2023-03-13T06:21:16.339Z,12.67
2023-03-13T06:23:44.384Z,12.80
2023-03-13T06:26:12.007Z,12.64
2023-03-13T06:28:39.975Z,12.87
2023-03-13T06:31:08.156Z,13.35
2023-03-13T06:33:36.197Z,13.37
2023-03-13T06:36:04.287Z,13.25
2023-03-13T06:38:32.372Z,13.36
2023-03-13T06:41:00.196Z,13.62
2023-03-13T06:43:28.779Z,13.57
2023-03-13T06:45:56.577Z,13.44
2023-03-13T06:48:25.005Z,13.25
2023-03-13T06:50:52.885Z,13.25
2023-03-13T06:53:20.975Z,13.42
2023-03-13T06:55:49.463Z,13.53
2023-03-13T06:58:31.139Z,13.57
2023-03-13T07:01:01.191Z,13.49
2023-03-13T07:03:29.330Z,13.67
2023-03-13T07:05:57.437Z,13.39
2023-03-13T07:08:25.974Z,13.56
2023-03-13T07:10:55.069Z,13.55
2023-03-13T07:13:23.086Z,13.54
2023-03-13T07:15:51.772Z,13.90
2023-03-13T07:18:20.534Z,13.96
2023-03-13T07:20:55.708Z,13.87
2023-03-13T07:23:24.846Z,13.80
2023-03-13T07:25:53.712Z,13.79
2023-03-13T07:28:22.108Z,14.03
2023-03-13T07:30:50.023Z,14.24
2023-03-13T07:33:18.203Z,14.27
2023-03-13T07:35:50.495Z,14.49
2023-03-13T07:38:19.354Z,14.51
2023-03-13T07:40:50.732Z,14.26
2023-03-13T07:43:19.132Z,14.23
2023-03-13T07:46:06.287Z,14.42
2023-03-13T07:48:38.462Z,14.60
2023-03-13T07:51:07.845Z,14.72
2023-03-13T07:53:36.642Z,14.50
2023-03-13T07:56:06.161Z,14.61
2023-03-13T07:58:35.598Z,14.92
2023-03-13T08:01:19.739Z,15.03
2023-03-13T08:03:51.150Z,15.27
2023-03-13T08:06:20.229Z,15.09
2023-03-13T08:08:48.158Z,14.97
2023-03-13T08:11:19.709Z,14.84
2023-03-13T08:13:47.826Z,15.21
2023-03-13T08:16:17.306Z,15.60
2023-03-13T08:18:46.360Z,15.80
2023-03-13T08:21:16.121Z,15.70
2023-03-13T08:23:44.077Z,15.73
2023-03-13T08:26:19.933Z,15.63
2023-03-13T08:28:52.009Z,16.02
2023-03-13T08:31:21.517Z,15.81
2023-03-13T08:33:50.052Z,16.06
2023-03-13T08:36:19.192Z,16.03
2023-03-13T08:38:48.446Z,16.30
2023-03-13T08:41:17.876Z,16.43
2023-03-13T08:43:46.103Z,16.05
2023-03-13T08:46:14.359Z,16.33
2023-03-13T08:48:42.421Z,15.99
2023-03-13T08:51:14.411Z,16.07
2023-03-13T08:53:43.222Z,15.99
2023-03-13T08:56:12.347Z,15.70
2023-03-13T08:58:40.803Z,16.21
2023-03-13T09:01:13.116Z,16.31
2023-03-13T09:03:41.882Z,16.49
2023-03-13T09:06:10.394Z,16.25
2023-03-13T09:08:38.921Z,15.93
2023-03-13T09:11:14.033Z,15.88
2023-03-13T09:13:46.364Z,16.00
2023-03-13T09:16:15.823Z,16.82
2023-03-13T09:18:44.003Z,16.62
2023-03-13T09:21:16.836Z,16.48
2023-03-13T09:23:44.880Z,17.05
2023-03-13T09:26:12.972Z,16.66
2023-03-13T09:28:42.472Z,16.68
2023-03-13T09:31:21.120Z,17.20
2023-03-13T09:33:49.841Z,16.99
2023-03-13T09:36:21.548Z,16.68
2023-03-13T09:38:54.701Z,16.71
2023-03-13T09:41:24.497Z,16.74
2023-03-13T09:43:52.775Z,17.45
2023-03-13T09:46:35.611Z,17.51
2023-03-13T09:49:06.211Z,17.44
2023-03-13T09:51:36.770Z,17.63
2023-03-13T09:54:13.403Z,17.21
2023-03-13T09:56:45.810Z,17.59
2023-03-13T09:59:32.329Z,18.05
2023-03-13T10:02:01.275Z,17.24
2023-03-13T10:04:33.005Z,17.41
2023-03-13T10:07:00.838Z,17.61
2023-03-13T10:09:31.111Z,17.81
2023-03-13T10:12:00.458Z,17.75
2023-03-13T10:14:37.511Z,17.65
2023-03-13T10:17:28.427Z,17.46
2023-03-13T10:19:59.087Z,17.59
2023-03-13T10:22:30.214Z,18.26
2023-03-13T10:25:05.120Z,17.53
2023-03-13T10:27:42.707Z,17.44
2023-03-13T10:30:19.873Z,17.21
2023-03-13T10:32:47.463Z,17.24
2023-03-13T10:35:22.200Z,17.79
2023-03-13T10:37:49.778Z,17.00
2023-03-13T10:40:25.409Z,17.03
2023-03-13T10:42:54.071Z,17.27
2023-03-13T10:45:25.080Z,16.65
2023-03-13T10:47:57.345Z,16.76
2023-03-13T10:50:27.155Z,17.34
2023-03-13T10:52:55.304Z,17.88
2023-03-13T10:55:24.269Z,17.32
2023-03-13T10:58:02.729Z,17.52
2023-03-13T11:00:31.087Z,17.68
2023-03-13T11:02:58.805Z,18.13
2023-03-13T11:05:31.186Z,18.12
2023-03-13T11:07:58.863Z,18.66
2023-03-13T11:10:37.221Z,18.65
2023-03-13T11:13:04.765Z,19.11
2023-03-13T11:15:51.675Z,18.47
2023-03-13T11:18:31.749Z,18.57
2023-03-13T11:21:17.389Z,18.57
2023-03-13T11:23:53.486Z,19.46
2023-03-13T11:26:21.572Z,20.22
2023-03-13T11:28:58.140Z,20.89
2023-03-13T11:31:31.961Z,20.64
2023-03-13T11:34:06.328Z,20.56
2023-03-13T11:36:35.962Z,20.13
2023-03-13T11:39:18.734Z,21.02
2023-03-13T11:42:00.203Z,21.31
2023-03-13T11:44:31.135Z,20.57
2023-03-13T11:47:05.643Z,21.09
2023-03-13T11:49:40.829Z,21.13
2023-03-13T11:52:21.128Z,20.88
2023-03-13T11:54:54.553Z,21.56
2023-03-13T11:57:55.290Z,22.35
2023-03-13T12:00:31.610Z,21.69
2023-03-13T12:03:06.100Z,21.00
2023-03-13T12:05:52.067Z,20.84
2023-03-13T12:08:24.307Z,21.18
2023-03-13T12:11:06.467Z,21.88
2023-03-13T12:13:40.812Z,22.06
2023-03-13T12:16:21.473Z,21.68
2023-03-13T12:18:49.682Z,23.38
2023-03-13T12:21:23.296Z,22.21
2023-03-13T12:24:00.123Z,22.83
2023-03-13T12:26:48.011Z,22.59
2023-03-13T12:29:31.145Z,22.49
2023-03-13T12:32:04.922Z,21.85
2023-03-13T12:34:51.667Z,21.63
2023-03-13T12:37:22.329Z,22.32
2023-03-13T12:39:55.525Z,21.58
2023-03-13T12:42:41.700Z,21.57
2023-03-13T12:45:15.031Z,21.52
2023-03-13T12:47:54.640Z,20.67
2023-03-13T12:51:01.447Z,21.30
2023-03-13T12:53:44.331Z,21.84
2023-03-13T12:56:12.208Z,21.05
2023-03-13T12:58:39.838Z,21.77
2023-03-13T13:01:11.588Z,21.40
2023-03-13T13:03:43.391Z,22.30
2023-03-13T13:06:11.328Z,23.17
2023-03-13T13:08:40.864Z,22.73
2023-03-13T13:11:27.344Z,22.52
2023-03-13T13:13:54.974Z,22.10
2023-03-13T13:16:23.821Z,21.35
2023-03-13T13:18:52.176Z,21.37
2023-03-13T13:21:22.210Z,21.21
2023-03-13T13:23:54.129Z,21.98
2023-03-13T13:26:26.782Z,21.60
2023-03-13T13:28:54.817Z,21.03
2023-03-13T13:31:41.917Z,22.70
2023-03-13T13:34:34.654Z,23.02
2023-03-13T13:37:20.799Z,22.35
2023-03-13T13:39:52.893Z,22.71
2023-03-13T13:42:30.856Z,22.62
2023-03-13T13:44:58.562Z,23.43
2023-03-13T13:47:28.668Z,23.16
2023-03-13T13:49:57.701Z,23.59
2023-03-13T13:52:39.691Z,22.81
2023-03-13T13:55:22.432Z,23.42
2023-03-13T13:57:52.636Z,23.84
2023-03-13T14:00:25.396Z,24.55
2023-03-13T14:02:54.656Z,25.26
2023-03-13T14:05:27.025Z,25.44
2023-03-13T14:08:14.497Z,25.79
2023-03-13T14:10:43.442Z,24.20
2023-03-13T14:13:21.839Z,23.61
2023-03-13T14:15:53.085Z,24.01
2023-03-13T14:18:31.163Z,23.78
2023-03-13T14:21:02.107Z,23.87
2023-03-13T14:23:35.506Z,24.43
2023-03-13T14:26:16.448Z,24.83
2023-03-13T14:28:46.711Z,24.36
2023-03-13T14:31:24.992Z,24.82
2023-03-13T14:33:53.330Z,23.83
2023-03-13T14:36:20.989Z,23.47
2023-03-13T14:38:53.630Z,22.98
2023-03-13T14:41:27.626Z,24.45
2023-03-13T14:43:55.982Z,24.66
2023-03-13T14:46:26.533Z,24.49
2023-03-13T14:48:55.949Z,25.89
2023-03-13T14:51:28.072Z,25.18
2023-03-13T14:54:00.862Z,24.10
2023-03-13T14:56:38.937Z,26.48
2023-03-13T14:59:17.770Z,29.41
2023-03-13T15:01:46.356Z,30.73
2023-03-13T15:04:14.525Z,30.68
2023-03-13T15:06:42.332Z,31.93
2023-03-13T15:09:10.458Z,32.45
2023-03-13T15:11:41.329Z,31.65
2023-03-13T15:14:27.989Z,30.31
2023-03-13T15:16:55.623Z,29.17
2023-03-13T15:19:23.930Z,26.69
2023-03-13T15:21:52.188Z,25.60
2023-03-13T15:24:20.200Z,27.04
2023-03-13T15:26:49.165Z,25.67
2023-03-13T15:29:18.487Z,24.55
2023-03-13T15:31:46.362Z,23.61
2023-03-13T15:34:15.147Z,22.95
2023-03-13T15:36:42.868Z,23.30
2023-03-13T15:39:20.900Z,22.30
2023-03-13T15:41:48.545Z,22.12
2023-03-13T15:44:16.504Z,22.12
2023-03-13T15:46:44.132Z,22.63
2023-03-13T15:49:13.257Z,21.98
2023-03-13T15:51:40.875Z,22.72
2023-03-13T15:54:08.759Z,22.24
2023-03-13T15:56:38.256Z,22.82
2023-03-13T15:59:10.641Z,22.60
2023-03-13T16:01:38.393Z,22.19
2023-03-13T16:04:06.893Z,21.91
2023-03-13T16:06:34.698Z,21.61
2023-03-13T16:09:06.033Z,21.36
2023-03-13T16:11:33.669Z,21.28
2023-03-13T16:14:01.704Z,21.50
2023-03-13T16:16:30.284Z,21.54
2023-03-13T16:18:59.103Z,20.74
2023-03-13T16:21:28.297Z,21.10
2023-03-13T16:23:56.604Z,20.43
2023-03-13T16:26:25.934Z,20.14
2023-03-13T16:28:55.565Z,19.77
2023-03-13T16:31:27.916Z,19.63
2023-03-13T16:33:56.484Z,19.43
2023-03-13T16:36:25.844Z,19.43
2023-03-13T16:38:53.874Z,19.30
2023-03-13T16:41:23.504Z,19.52
2023-03-13T16:43:51.645Z,19.34
2023-03-13T16:46:23.479Z,19.39
2023-03-13T16:48:51.710Z,19.28
2023-03-13T16:51:21.015Z,19.01
2023-03-13T16:53:50.128Z,19.11
2023-03-13T16:56:44.068Z,18.84
2023-03-13T16:59:13.582Z,19.06
2023-03-13T17:01:59.735Z,19.07
2023-03-13T17:04:27.704Z,19.17
2023-03-13T17:06:55.653Z,19.04
2023-03-13T17:09:23.571Z,19.08
2023-03-13T17:11:51.143Z,19.08
2023-03-13T17:14:19.061Z,19.35
2023-03-13T17:16:47.329Z,19.45
2023-03-13T17:19:15.473Z,19.26
2023-03-13T17:21:43.200Z,19.20
2023-03-13T17:24:11.194Z,19.48
2023-03-13T17:26:40.533Z,19.09
2023-03-13T17:29:13.070Z,19.21
2023-03-13T17:31:41.267Z,19.06
2023-03-13T17:34:09.452Z,18.91
2023-03-13T17:36:37.297Z,19.22
2023-03-13T17:39:06.726Z,19.10
2023-03-13T17:41:35.065Z,18.95
2023-03-13T17:44:06.040Z,19.15
2023-03-13T17:46:41.428Z,18.81
2023-03-13T17:49:11.235Z,18.80
2023-03-13T17:51:41.656Z,19.25
2023-03-13T17:54:10.246Z,19.08
2023-03-13T17:56:40.533Z,19.31
2023-03-13T17:59:18.631Z,19.16
2023-03-13T18:01:46.517Z,19.16
2023-03-13T18:04:14.783Z,19.23
2023-03-13T18:06:44.001Z,19.11
2023-03-13T18:09:17.160Z,19.11
2023-03-13T18:11:44.966Z,19.35
2023-03-13T18:14:13.312Z,19.14
2023-03-13T18:16:47.849Z,19.01
2023-03-13T18:19:18.001Z,19.07
2023-03-13T18:21:46.528Z,19.18
2023-03-13T18:24:15.681Z,19.08
2023-03-13T18:26:44.161Z,19.03
2023-03-13T18:29:16.701Z,18.98
2023-03-13T18:31:44.493Z,19.11
2023-03-13T18:34:12.541Z,18.95
2023-03-13T18:36:40.431Z,19.11
2023-03-13T18:39:08.504Z,19.08
2023-03-13T18:41:36.261Z,19.10
2023-03-13T18:44:04.277Z,19.17
2023-03-13T18:46:34.440Z,18.99
2023-03-13T18:49:02.881Z,18.91
2023-03-13T18:51:31.061Z,18.89
2023-03-13T18:53:59.022Z,18.98
2023-03-13T18:56:28.852Z,18.57
2023-03-13T18:58:57.570Z,18.39
2023-03-13T19:01:26.705Z,18.09
2023-03-13T19:03:54.842Z,18.34
2023-03-13T19:06:25.269Z,18.17
2023-03-13T19:08:54.919Z,17.95
2023-03-13T19:11:30.193Z,17.98
2023-03-13T19:13:58.337Z,18.01
2023-03-13T19:16:29.740Z,18.03
2023-03-13T19:18:58.468Z,17.90
2023-03-13T19:21:27.273Z,18.08
2023-03-13T19:23:55.816Z,17.92
2023-03-13T19:26:43.479Z,17.87
2023-03-13T19:29:16.215Z,17.81
2023-03-13T19:31:43.999Z,17.52
2023-03-13T19:34:12.492Z,17.65
2023-03-13T19:36:42.013Z,17.50
2023-03-13T19:39:17.115Z,17.81
2023-03-13T19:41:45.155Z,17.53
2023-03-13T19:44:13.203Z,17.59
2023-03-13T19:46:43.638Z,17.51
2023-03-13T19:49:13.603Z,17.57
2023-03-13T19:51:41.234Z,17.41
2023-03-13T19:54:10.954Z,17.53
2023-03-13T19:56:39.711Z,17.52
2023-03-13T19:59:13.605Z,17.53
2023-03-13T20:01:41.488Z,17.34
2023-03-13T20:04:10.291Z,17.40
2023-03-13T20:06:38.734Z,17.33
2023-03-13T20:09:09.283Z,17.29
2023-03-13T20:11:37.613Z,17.37
2023-03-13T20:14:05.802Z,17.32
2023-03-13T20:16:35.262Z,17.10
2023-03-13T20:19:03.591Z,17.03
2023-03-13T20:21:33.128Z,17.23
2023-03-13T20:24:01.324Z,17.18
2023-03-13T20:26:30.311Z,17.14
2023-03-13T20:28:58.476Z,17.10
2023-03-13T20:31:28.548Z,17.10
2023-03-13T20:33:57.742Z,16.93
2023-03-13T20:36:25.742Z,16.98
2023-03-13T20:38:53.862Z,17.00
2023-03-13T20:41:25.338Z,17.08
2023-03-13T20:43:53.605Z,17.06
2023-03-13T20:46:21.762Z,16.96
2023-03-13T20:48:50.399Z,16.96
2023-03-13T20:51:18.394Z,17.08
2023-03-13T20:53:52.615Z,17.18
2023-03-13T20:56:21.397Z,17.00
2023-03-13T20:58:49.629Z,16.94
2023-03-13T21:01:19.216Z,17.12
2023-03-13T21:03:47.760Z,17.09
2023-03-13T21:06:16.596Z,17.05
2023-03-13T21:08:47.246Z,17.02
2023-03-13T21:11:24.126Z,17.09
2023-03-13T21:13:52.507Z,16.97
2023-03-13T21:16:20.715Z,16.86
2023-03-13T21:18:49.930Z,16.97
2023-03-13T21:21:19.169Z,16.99
2023-03-13T21:23:47.796Z,16.90
2023-03-13T21:26:15.988Z,16.93
2023-03-13T21:28:44.256Z,17.05
2023-03-13T21:31:13.625Z,17.06
2023-03-13T21:33:43.392Z,17.01
2023-03-13T21:36:12.481Z,16.91
2023-03-13T21:38:40.546Z,17.03
2023-03-13T21:41:12.916Z,16.90
2023-03-13T21:43:41.955Z,16.75
2023-03-13T21:46:10.825Z,16.87
2023-03-13T21:48:39.464Z,16.82
2023-03-13T21:51:07.535Z,16.69
2023-03-13T21:53:36.852Z,16.88
2023-03-13T21:56:04.687Z,16.74
2023-03-13T21:58:32.875Z,16.76
2023-03-13T22:01:00.908Z,16.71
2023-03-13T22:03:31.949Z,16.70
2023-03-13T22:05:59.757Z,16.75
2023-03-13T22:08:27.741Z,16.81
2023-03-13T22:10:55.493Z,16.75
2023-03-13T22:13:23.433Z,16.65
2023-03-13T22:15:53.087Z,16.58
2023-03-13T22:18:21.214Z,16.49
2023-03-13T22:20:48.907Z,16.62
2023-03-13T22:23:17.433Z,16.59
2023-03-13T22:25:45.964Z,16.42
2023-03-13T22:28:14.074Z,16.61
2023-03-13T22:30:44.101Z,16.48
2023-03-13T22:33:12.169Z,16.74
2023-03-13T22:35:40.837Z,16.66
2023-03-13T22:38:08.958Z,16.61
2023-03-13T22:40:36.776Z,16.54
2023-03-13T22:43:04.794Z,16.69
2023-03-13T22:45:34.189Z,16.53
2023-03-13T22:48:06.812Z,16.56
2023-03-13T22:50:34.722Z,16.59
2023-03-13T22:53:03.189Z,16.53
2023-03-13T22:55:32.088Z,16.52
2023-03-13T22:58:00.629Z,16.26
2023-03-13T23:00:28.257Z,16.33
2023-03-13T23:02:56.678Z,16.49
2023-03-13T23:05:24.370Z,16.23
2023-03-13T23:07:52.345Z,16.24
2023-03-13T23:10:19.994Z,16.37
2023-03-13T23:12:48.004Z,16.35
2023-03-13T23:15:15.647Z,16.32
2023-03-13T23:17:43.696Z,16.14
2023-03-13T23:20:14.368Z,16.23
2023-03-13T23:22:43.361Z,16.11
2023-03-13T23:25:11.648Z,16.09
2023-03-13T23:27:39.695Z,16.08
2023-03-13T23:30:09.098Z,15.95
2023-03-13T23:32:37.882Z,16.12
2023-03-13T23:35:06.684Z,16.09
2023-03-13T23:37:34.697Z,16.19
2023-03-13T23:40:02.875Z,16.18
2023-03-13T23:42:31.174Z,15.89
2023-03-13T23:44:58.816Z,16.12
2023-03-13T23:47:28.546Z,15.99
2023-03-13T23:49:56.314Z,16.03
2023-03-13T23:52:24.306Z,15.86
2023-03-13T23:54:52.770Z,16.04
2023-03-13T23:57:20.996Z,15.90
2023-03-13T23:59:49.351Z,16.00
